Latest Coastal Weather Observations for Frankston

IDV60701

Issued at 1:15 pm EDT Thursday 23 October 2014 (issued every 10 minutes, with the page automatically refreshed every 10 minutes)

About coastal observations | Map of coastal stations | Coastal observations for VIC | Marine services | Other Formats
Station Details ID: 086371 Name: FRANKSTON AWS Lat: -38.15 Lon: 145.12 Height: 6.0 m
Data from the previous 72 hours. | See also: Recent months at Frankston
Date/Time
EDT
Temp

°C
Wind Pressure Rain
since 9am
mm
Weather Cloud Vis
km
Sea
Height
m
Swell
Dir
 
Speed
knots
Gust
knots
hPa Trend Height
m
Period
s
Dir
23/01:00pm 16.6 ESE 4 8 - - - - - - - - - -
23/12:30pm 16.0 SE 4 6 - - - - - - - - - -
23/12:00pm 15.8 SSE 4 6 - - - - - - - - - -
23/11:30am 15.6 SE 2 6 - - - - - - - - - -
23/11:00am 15.3 SSE 3 5 - - - - - - - - - -
23/10:30am 15.2 S 1 3 - - - - - - - - - -
23/10:00am 14.8 S 2 4 - - - - - - - - - -
23/09:30am 14.8 SSE 2 4 - - - - - - - - - -
23/09:00am 14.7 SSE 3 4 - - - - - - - - - -
23/08:30am 14.6 SSE 4 5 - - - - - - - - - -
23/08:00am 14.5 S 3 5 - - - - - - - - - -
23/07:30am 14.6 SSE 3 6 - - - - - - - - - -
23/07:00am 14.6 S 2 5 - - - - - - - - - -
23/06:30am 14.6 S 2 3 - - - - - - - - - -
23/06:00am 14.7 S 2 4 - - - - - - - - - -
23/05:30am 14.8 S 3 4 - - - - - - - - - -
23/05:00am 14.6 SSW 4 6 - - - - - - - - - -
23/04:30am 14.6 SW 4 7 - - - - - - - - - -
23/04:00am 14.6 SW 4 5 - - - - - - - - - -
23/03:30am 14.7 WSW 4 5 - - - - - - - - - -
23/03:00am 14.7 WSW 6 8 - - - - - - - - - -
23/02:30am 14.6 SW 7 10 - - - - - - - - - -
23/02:00am 14.8 SW 7 10 - - - - - - - - - -
23/01:30am 14.9 WSW 12 15 - - - - - - - - - -
23/01:00am 15.3 WSW 11 13 - - - - - - - - - -
23/12:30am 16.5 E 5 11 - - - - - - - - - -
23/12:00am 16.0 SSE 2 5 - - - - - - - - - -
 
Date/Time
EDT
Temp

°C
Wind Pressure Rain
since 9am
mm
Weather Cloud Vis
km
Sea
Height
m
Swell
Dir
 
Speed
knots
Gust
knots
hPa Trend Height
m
Period
s
Dir
22/11:30pm 15.3 SW 14 20 - - - - - - - - - -
22/11:00pm 15.2 WSW 15 19 - - - - - - - - - -
22/10:30pm 15.7 SW 14 18 - - - - - - - - - -
22/10:00pm 16.1 WSW 18 24 - - - - - - - - - -
22/09:30pm 18.7 WSW 18 21 - - - - - - - - - -
22/09:14pm 19.9 W 9 12 - - - - - - - - - -
22/09:00pm 25.1 SSE 5 7 - - - - - - - - - -
22/08:30pm 25.3 SSE 5 7 - - - - - - - - - -
22/08:00pm 26.1 SW 6 8 - - - - - - - - - -
22/07:30pm 27.4 CALM 0 0 - - - - - - - - - -
22/07:00pm 26.3 WSW 2 3 - - - - - - - - - -
22/06:30pm 28.3 SW 1 3 - - - - - - - - - -
22/06:00pm 27.0 N 2 4 - - - - - - - - - -
22/05:30pm 27.9 CALM 0 1 - - - - - - - - - -
22/05:00pm 26.5 W 3 5 - - - - - - - - - -
22/04:30pm 28.5 SW 1 2 - - - - - - - - - -
22/04:00pm 28.6 NNW 3 5 - - - - - - - - - -
22/03:30pm 28.4 CALM 0 0 - - - - - - - - - -
22/03:00pm 26.9 CALM 0 0 - - - - - - - - - -
22/02:30pm 25.0 WSW 2 4 - - - - - - - - - -
22/02:00pm 26.8 CALM 0 0 - - - - - - - - - -
22/01:30pm 23.6 W 1 2 - - - - - - - - - -
22/01:00pm 22.9 W 3 5 - - - - - - - - - -
22/12:30pm 23.2 NW 1 5 - - - - - - - - - -
22/12:00pm 22.9 N 1 3 - - - - - - - - - -
22/11:30am 20.8 WSW 3 4 - - - - - - - - - -
22/11:00am 19.9 WSW 7 8 - - - - - - - - - -
22/10:30am 20.7 WNW 3 4 - - - - - - - - - -
22/10:00am 20.3 CALM 0 2 - - - - - - - - - -
22/09:30am 19.8 CALM 0 1 - - - - - - - - - -
22/09:00am 17.7 CALM 0 2 - - - - - - - - - -
22/08:30am 17.8 NNE 3 5 - - - - - - - - - -
22/08:00am 16.6 N 1 3 - - - - - - - - - -
22/07:30am 16.8 CALM 0 0 - - - - - - - - - -
22/07:00am 16.3 CALM 0 0 - - - - - - - - - -
22/06:30am 16.7 ENE 1 2 - - - - - - - - - -
22/06:00am 15.3 ESE 2 3 - - - - - - - - - -
22/05:30am 16.3 ESE 2 3 - - - - - - - - - -
22/05:00am 15.7 SE 3 4 - - - - - - - - - -
22/04:30am 15.4 SE 5 6 - - - - - - - - - -
22/04:00am 15.0 SE 6 8 - - - - - - - - - -
22/03:30am 13.9 SE 6 8 - - - - - - - - - -
22/03:00am 13.8 SE 7 9 - - - - - - - - - -
22/02:30am 14.1 SE 6 9 - - - - - - - - - -
22/02:00am 14.3 SE 6 9 - - - - - - - - - -
22/01:30am - SE 6 9 - - - - - - - - - -
22/01:00am 14.8 SE 7 10 - - - - - - - - - -
22/12:30am 14.9 SE 7 10 - - - - - - - - - -
22/12:00am 15.1 ESE 9 11 - - - - - - - - - -
 
Date/Time
EDT
Temp

°C
Wind Pressure Rain
since 9am
mm
Weather Cloud Vis
km
Sea
Height
m
Swell
Dir
 
Speed
knots
Gust
knots
hPa Trend Height
m
Period
s
Dir
21/11:30pm 15.4 ESE 9 13 - - - - - - - - - -
21/11:00pm 15.8 ESE 9 13 - - - - - - - - - -
21/10:30pm 16.4 ESE 8 13 - - - - - - - - - -
21/10:00pm 17.0 ESE 9 14 - - - - - - - - - -
21/09:30pm 17.8 ESE 8 14 - - - - - - - - - -
21/09:00pm 18.5 ESE 9 18 - - - - - - - - - -
21/08:30pm 19.4 ESE 7 13 - - - - - - - - - -
21/08:00pm 20.3 ESE 8 13 - - - - - - - - - -
21/07:30pm 21.3 ESE 7 12 - - - - - - - - - -
21/07:00pm 22.3 ESE 7 12 - - - - - - - - - -
21/06:30pm 22.9 E 9 15 - - - - - - - - - -
21/06:00pm 23.9 ESE 8 13 - - - - - - - - - -
21/05:30pm 23.9 ESE 8 13 - - - - - - - - - -
21/05:00pm 23.8 E 8 13 - - - - - - - - - -
21/04:30pm 24.3 E 8 13 - - - - - - - - - -
21/04:00pm 24.4 E 7 12 - - - - - - - - - -
21/03:30pm 23.9 ESE 6 10 - - - - - - - - - -
21/03:00pm 23.5 ESE 6 11 - - - - - - - - - -
21/02:30pm 22.5 E 7 11 - - - - - - - - - -
21/02:00pm 23.1 ESE 5 9 - - - - - - - - - -
21/01:30pm 22.2 E 5 9 - - - - - - - - - -
21/01:00pm 20.9 E 4 9 - - - - - - - - - -
21/12:30pm 20.5 ESE 6 10 - - - - - - - - - -
21/12:00pm 19.6 E 5 10 - - - - - - - - - -
21/11:30am 18.5 ESE 6 9 - - - - - - - - - -
21/11:00am 18.2 E 6 9 - - - - - - - - - -
21/10:30am 16.9 E 5 9 - - - - - - - - - -
21/10:00am 15.9 E 6 10 - - - - - - - - - -
21/09:30am 14.6 ESE 7 11 - - - - - - - - - -
21/09:00am 14.0 E 8 12 - - - - - - - - - -
21/08:30am 12.8 E 6 11 - - - - - - - - - -
21/08:00am 11.6 E 4 7 - - - - - - - - - -
21/07:30am 10.6 E 1 2 - - - - - - - - - -
21/07:00am 9.2 ESE 3 3 - - - - - - - - - -
21/06:30am 9.1 ESE 3 4 - - - - - - - - - -
21/06:00am 9.3 ESE 3 5 - - - - - - - - - -
21/05:30am 9.7 E 4 6 - - - - - - - - - -
21/05:00am 10.1 E 5 8 - - - - - - - - - -
21/04:30am 10.5 ESE 5 8 - - - - - - - - - -
21/04:00am 10.7 ESE 5 9 - - - - - - - - - -
21/03:30am 11.0 ESE 7 13 - - - - - - - - - -
21/03:00am 11.2 ESE 7 13 - - - - - - - - - -
21/02:30am 11.4 E 7 12 - - - - - - - - - -
21/02:00am 11.4 ESE 8 15 - - - - - - - - - -
21/01:30am 11.6 ESE 9 17 - - - - - - - - - -
21/01:00am 11.8 ESE 9 19 - - - - - - - - - -
21/12:30am 11.9 ESE 11 19 - - - - - - - - - -
21/12:00am 12.0 ESE 10 18 - - - - - - - - - -
 
Date/Time
EDT
Temp

°C
Wind Pressure Rain
since 9am
mm
Weather Cloud Vis
km
Sea
Height
m
Swell
Dir
 
Speed
knots
Gust
knots
hPa Trend Height
m
Period
s
Dir
20/11:30pm 12.1 ESE 9 18 - - - - - - - - - -
20/11:00pm 12.4 ESE 11 22 - - - - - - - - - -
20/10:30pm 12.6 ESE 11 19 - - - - - - - - - -
20/10:00pm 12.9 ESE 12 23 - - - - - - - - - -
20/09:30pm 13.2 ESE 13 26 - - - - - - - - - -
20/09:00pm 13.5 ESE 10 18 - - - - - - - - - -
20/08:30pm 14.1 ESE 11 23 - - - - - - - - - -
20/08:00pm 14.8 ESE 10 17 - - - - - - - - - -
20/07:30pm 15.7 E 10 20 - - - - - - - - - -
20/07:00pm 16.8 ESE 9 17 - - - - - - - - - -
20/06:30pm 18.2 ESE 9 13 - - - - - - - - - -
20/06:00pm 18.6 SE 7 17 - - - - - - - - - -
20/05:30pm 18.6 SE 9 16 - - - - - - - - - -
20/05:00pm 18.5 SE 8 14 - - - - - - - - - -
20/04:30pm 18.8 SE 9 18 - - - - - - - - - -
20/04:00pm 18.5 ESE 9 16 - - - - - - - - - -
20/03:30pm 18.9 SE 7 15 - - - - - - - - - -
20/03:00pm 18.2 SE 8 13 - - - - - - - - - -
20/02:30pm 18.8 ESE 8 15 - - - - - - - - - -
20/02:00pm 17.9 ESE 8 16 - - - - - - - - - -
20/01:30pm 17.4 ESE 8 16 - - - - - - - - - -

Other Formats:

Comma delimited format used in spreadsheet applications
http://www.bom.gov.au/fwo/IDV60701/IDV60701.94871.axf

JavaScript Object Notation format (JSON) in row-major order
http://www.bom.gov.au/fwo/IDV60701/IDV60701.94871.json